sensor_id;sensor_type;location;lat;lon;timestamp;P1;durP1;ratioP1;P2;durP2;ratioP2
49502;SDS011;35409;48.776;9.204;2022-11-20T00:00:44;28.98;;;16.33;;
49502;SDS011;35409;48.776;9.204;2022-11-20T00:03:10;26.20;;;14.45;;
49502;SDS011;35409;48.776;9.204;2022-11-20T00:05:36;23.73;;;14.30;;
49502;SDS011;35409;48.776;9.204;2022-11-20T00:08:02;25.70;;;14.07;;
49502;SDS011;35409;48.776;9.204;2022-11-20T00:10:28;24.15;;;14.45;;
49502;SDS011;35409;48.776;9.204;2022-11-20T00:12:54;22.50;;;14.65;;
49502;SDS011;35409;48.776;9.204;2022-11-20T00:15:20;21.58;;;14.27;;
49502;SDS011;35409;48.776;9.204;2022-11-20T00:17:46;24.02;;;13.95;;
49502;SDS011;35409;48.776;9.204;2022-11-20T00:20:12;25.33;;;14.13;;
49502;SDS011;35409;48.776;9.204;2022-11-20T00:22:38;21.83;;;14.10;;
49502;SDS011;35409;48.776;9.204;2022-11-20T00:25:04;24.83;;;14.93;;
49502;SDS011;35409;48.776;9.204;2022-11-20T00:27:30;28.52;;;15.98;;
49502;SDS011;35409;48.776;9.204;2022-11-20T00:29:56;26.52;;;16.45;;
49502;SDS011;35409;48.776;9.204;2022-11-20T00:32:22;23.15;;;14.52;;
49502;SDS011;35409;48.776;9.204;2022-11-20T00:34:48;25.85;;;16.15;;
49502;SDS011;35409;48.776;9.204;2022-11-20T00:37:14;21.98;;;14.13;;
49502;SDS011;35409;48.776;9.204;2022-11-20T00:39:40;24.88;;;15.00;;
49502;SDS011;35409;48.776;9.204;2022-11-20T00:42:06;23.60;;;13.95;;
49502;SDS011;35409;48.776;9.204;2022-11-20T00:44:32;24.88;;;14.60;;
49502;SDS011;35409;48.776;9.204;2022-11-20T00:46:58;29.65;;;16.60;;
49502;SDS011;35409;48.776;9.204;2022-11-20T00:49:24;24.20;;;13.70;;
49502;SDS011;35409;48.776;9.204;2022-11-20T00:51:50;11.65;;;7.75;;
49502;SDS011;35409;48.776;9.204;2022-11-20T00:54:16;14.00;;;8.10;;
49502;SDS011;35409;48.776;9.204;2022-11-20T00:56:42;15.40;;;8.23;;
49502;SDS011;35409;48.776;9.204;2022-11-20T00:59:08;13.00;;;5.53;;
49502;SDS011;35409;48.776;9.204;2022-11-20T01:01:35;7.68;;;5.32;;
49502;SDS011;35409;48.776;9.204;2022-11-20T01:04:01;8.48;;;4.88;;
49502;SDS011;35409;48.776;9.204;2022-11-20T01:06:32;6.70;;;4.10;;
49502;SDS011;35409;48.776;9.204;2022-11-20T01:08:58;5.57;;;4.13;;
49502;SDS011;35409;48.776;9.204;2022-11-20T01:11:34;6.88;;;3.67;;
49502;SDS011;35409;48.776;9.204;2022-11-20T01:14:02;8.18;;;3.83;;
49502;SDS011;35409;48.776;9.204;2022-11-20T01:16:30;8.00;;;3.78;;
49502;SDS011;35409;48.776;9.204;2022-11-20T01:18:57;5.30;;;3.33;;
49502;SDS011;35409;48.776;9.204;2022-11-20T01:21:27;6.35;;;3.33;;
49502;SDS011;35409;48.776;9.204;2022-11-20T01:23:54;3.80;;;3.10;;
49502;SDS011;35409;48.776;9.204;2022-11-20T01:26:21;3.63;;;2.50;;
49502;SDS011;35409;48.776;9.204;2022-11-20T01:28:47;3.80;;;2.47;;
49502;SDS011;35409;48.776;9.204;2022-11-20T01:31:15;2.72;;;2.33;;
49502;SDS011;35409;48.776;9.204;2022-11-20T01:33:42;3.55;;;2.45;;
49502;SDS011;35409;48.776;9.204;2022-11-20T01:36:08;4.18;;;2.25;;
49502;SDS011;35409;48.776;9.204;2022-11-20T01:38:34;4.93;;;2.85;;
49502;SDS011;35409;48.776;9.204;2022-11-20T01:41:00;3.88;;;2.45;;
49502;SDS011;35409;48.776;9.204;2022-11-20T01:43:27;5.53;;;2.40;;
49502;SDS011;35409;48.776;9.204;2022-11-20T01:46:00;4.13;;;2.00;;
49502;SDS011;35409;48.776;9.204;2022-11-20T01:48:31;4.03;;;2.20;;
49502;SDS011;35409;48.776;9.204;2022-11-20T01:50:58;6.28;;;2.28;;
49502;SDS011;35409;48.776;9.204;2022-11-20T01:53:27;3.92;;;2.60;;
49502;SDS011;35409;48.776;9.204;2022-11-20T01:55:54;6.38;;;2.40;;
49502;SDS011;35409;48.776;9.204;2022-11-20T01:58:23;3.53;;;2.40;;
49502;SDS011;35409;48.776;9.204;2022-11-20T02:00:51;3.17;;;2.47;;
49502;SDS011;35409;48.776;9.204;2022-11-20T02:03:17;4.53;;;2.70;;
49502;SDS011;35409;48.776;9.204;2022-11-20T02:05:55;3.85;;;2.40;;
49502;SDS011;35409;48.776;9.204;2022-11-20T02:08:23;3.40;;;2.63;;
49502;SDS011;35409;48.776;9.204;2022-11-20T02:10:50;3.67;;;2.67;;
49502;SDS011;35409;48.776;9.204;2022-11-20T02:13:16;4.00;;;2.90;;
49502;SDS011;35409;48.776;9.204;2022-11-20T02:16:01;3.25;;;2.40;;
49502;SDS011;35409;48.776;9.204;2022-11-20T02:18:27;5.18;;;3.08;;
49502;SDS011;35409;48.776;9.204;2022-11-20T02:20:55;3.30;;;2.75;;
49502;SDS011;35409;48.776;9.204;2022-11-20T02:25:50;3.05;;;2.70;;
49502;SDS011;35409;48.776;9.204;2022-11-20T02:28:17;4.15;;;2.38;;
49502;SDS011;35409;48.776;9.204;2022-11-20T02:30:43;4.38;;;2.25;;
49502;SDS011;35409;48.776;9.204;2022-11-20T02:33:09;5.78;;;2.67;;
49502;SDS011;35409;48.776;9.204;2022-11-20T02:38:02;4.70;;;2.30;;
49502;SDS011;35409;48.776;9.204;2022-11-20T02:40:28;2.95;;;2.13;;
49502;SDS011;35409;48.776;9.204;2022-11-20T02:42:54;4.50;;;2.28;;
49502;SDS011;35409;48.776;9.204;2022-11-20T02:45:21;1.95;;;1.77;;
49502;SDS011;35409;48.776;9.204;2022-11-20T02:47:47;4.28;;;2.10;;
49502;SDS011;35409;48.776;9.204;2022-11-20T02:50:13;3.50;;;2.22;;
49502;SDS011;35409;48.776;9.204;2022-11-20T02:52:39;3.30;;;1.98;;
49502;SDS011;35409;48.776;9.204;2022-11-20T02:55:06;2.65;;;2.30;;
49502;SDS011;35409;48.776;9.204;2022-11-20T02:57:32;4.13;;;2.55;;
49502;SDS011;35409;48.776;9.204;2022-11-20T02:59:58;5.13;;;2.20;;
49502;SDS011;35409;48.776;9.204;2022-11-20T03:02:24;3.95;;;2.53;;
49502;SDS011;35409;48.776;9.204;2022-11-20T03:04:50;4.22;;;2.40;;
49502;SDS011;35409;48.776;9.204;2022-11-20T03:07:16;4.15;;;2.38;;
49502;SDS011;35409;48.776;9.204;2022-11-20T03:09:42;3.97;;;2.72;;
49502;SDS011;35409;48.776;9.204;2022-11-20T03:12:07;3.28;;;2.22;;
49502;SDS011;35409;48.776;9.204;2022-11-20T03:14:34;5.45;;;2.53;;
49502;SDS011;35409;48.776;9.204;2022-11-20T03:17:00;4.40;;;2.38;;
49502;SDS011;35409;48.776;9.204;2022-11-20T03:19:26;2.78;;;1.98;;
49502;SDS011;35409;48.776;9.204;2022-11-20T03:21:52;6.90;;;3.00;;
49502;SDS011;35409;48.776;9.204;2022-11-20T03:24:18;3.30;;;2.50;;
49502;SDS011;35409;48.776;9.204;2022-11-20T03:26:44;3.72;;;2.50;;
49502;SDS011;35409;48.776;9.204;2022-11-20T03:29:10;3.35;;;2.58;;
49502;SDS011;35409;48.776;9.204;2022-11-20T03:31:37;5.60;;;2.85;;
49502;SDS011;35409;48.776;9.204;2022-11-20T03:34:07;3.95;;;3.15;;
49502;SDS011;35409;48.776;9.204;2022-11-20T03:36:34;3.92;;;2.63;;
49502;SDS011;35409;48.776;9.204;2022-11-20T03:39:00;4.35;;;3.13;;
49502;SDS011;35409;48.776;9.204;2022-11-20T03:41:27;3.47;;;2.40;;
49502;SDS011;35409;48.776;9.204;2022-11-20T03:43:54;5.60;;;2.97;;
49502;SDS011;35409;48.776;9.204;2022-11-20T03:46:20;6.47;;;3.00;;
49502;SDS011;35409;48.776;9.204;2022-11-20T03:48:47;7.30;;;3.40;;
49502;SDS011;35409;48.776;9.204;2022-11-20T03:51:17;7.07;;;3.72;;
49502;SDS011;35409;48.776;9.204;2022-11-20T03:53:44;7.47;;;3.80;;
49502;SDS011;35409;48.776;9.204;2022-11-20T03:56:10;5.82;;;3.35;;
49502;SDS011;35409;48.776;9.204;2022-11-20T03:58:37;6.35;;;3.58;;
49502;SDS011;35409;48.776;9.204;2022-11-20T04:01:16;5.00;;;3.50;;
49502;SDS011;35409;48.776;9.204;2022-11-20T04:03:43;5.72;;;3.17;;
49502;SDS011;35409;48.776;9.204;2022-11-20T04:06:10;5.32;;;3.70;;
49502;SDS011;35409;48.776;9.204;2022-11-20T04:08:37;7.97;;;3.95;;
49502;SDS011;35409;48.776;9.204;2022-11-20T04:11:16;5.93;;;3.72;;
49502;SDS011;35409;48.776;9.204;2022-11-20T04:13:45;4.20;;;3.42;;
49502;SDS011;35409;48.776;9.204;2022-11-20T04:16:11;5.00;;;3.60;;
49502;SDS011;35409;48.776;9.204;2022-11-20T04:18:37;4.65;;;3.50;;
49502;SDS011;35409;48.776;9.204;2022-11-20T04:21:04;6.15;;;3.58;;
49502;SDS011;35409;48.776;9.204;2022-11-20T04:23:30;6.57;;;3.78;;
49502;SDS011;35409;48.776;9.204;2022-11-20T04:26:03;6.20;;;3.75;;
49502;SDS011;35409;48.776;9.204;2022-11-20T04:28:30;5.50;;;3.67;;
49502;SDS011;35409;48.776;9.204;2022-11-20T04:31:09;6.22;;;4.03;;
49502;SDS011;35409;48.776;9.204;2022-11-20T04:33:35;5.20;;;3.90;;
49502;SDS011;35409;48.776;9.204;2022-11-20T04:36:24;7.25;;;4.13;;
49502;SDS011;35409;48.776;9.204;2022-11-20T04:38:52;6.22;;;4.25;;
49502;SDS011;35409;48.776;9.204;2022-11-20T04:41:18;6.90;;;3.53;;
49502;SDS011;35409;48.776;9.204;2022-11-20T04:43:48;5.68;;;3.85;;
49502;SDS011;35409;48.776;9.204;2022-11-20T04:48:40;5.13;;;2.78;;
49502;SDS011;35409;48.776;9.204;2022-11-20T04:51:06;5.10;;;2.72;;
49502;SDS011;35409;48.776;9.204;2022-11-20T04:53:32;7.63;;;3.53;;
49502;SDS011;35409;48.776;9.204;2022-11-20T04:55:59;6.45;;;3.65;;
49502;SDS011;35409;48.776;9.204;2022-11-20T04:58:25;4.65;;;3.30;;
49502;SDS011;35409;48.776;9.204;2022-11-20T05:00:51;4.00;;;2.97;;
49502;SDS011;35409;48.776;9.204;2022-11-20T05:03:17;4.68;;;2.88;;
49502;SDS011;35409;48.776;9.204;2022-11-20T05:05:43;5.68;;;3.47;;
49502;SDS011;35409;48.776;9.204;2022-11-20T05:08:09;7.05;;;3.60;;
49502;SDS011;35409;48.776;9.204;2022-11-20T05:10:35;4.93;;;3.35;;
49502;SDS011;35409;48.776;9.204;2022-11-20T05:13:01;6.05;;;2.95;;
49502;SDS011;35409;48.776;9.204;2022-11-20T05:15:26;8.93;;;3.15;;
49502;SDS011;35409;48.776;9.204;2022-11-20T05:17:52;3.83;;;3.13;;
49502;SDS011;35409;48.776;9.204;2022-11-20T05:20:19;8.77;;;3.60;;
49502;SDS011;35409;48.776;9.204;2022-11-20T05:22:45;5.47;;;3.17;;
49502;SDS011;35409;48.776;9.204;2022-11-20T05:25:11;4.40;;;3.30;;
49502;SDS011;35409;48.776;9.204;2022-11-20T05:27:37;4.78;;;2.78;;
49502;SDS011;35409;48.776;9.204;2022-11-20T05:30:04;4.10;;;2.85;;
49502;SDS011;35409;48.776;9.204;2022-11-20T05:32:30;6.38;;;3.40;;
49502;SDS011;35409;48.776;9.204;2022-11-20T05:34:56;5.18;;;3.40;;
49502;SDS011;35409;48.776;9.204;2022-11-20T05:37:22;7.13;;;3.17;;
49502;SDS011;35409;48.776;9.204;2022-11-20T05:39:48;6.82;;;3.03;;
49502;SDS011;35409;48.776;9.204;2022-11-20T05:42:14;4.05;;;3.05;;
49502;SDS011;35409;48.776;9.204;2022-11-20T05:44:55;3.45;;;2.78;;
49502;SDS011;35409;48.776;9.204;2022-11-20T05:47:22;5.45;;;3.20;;
49502;SDS011;35409;48.776;9.204;2022-11-20T05:49:47;4.97;;;3.10;;
49502;SDS011;35409;48.776;9.204;2022-11-20T05:52:13;5.25;;;2.85;;
49502;SDS011;35409;48.776;9.204;2022-11-20T05:54:39;4.60;;;2.80;;
49502;SDS011;35409;48.776;9.204;2022-11-20T05:57:05;3.47;;;2.70;;
49502;SDS011;35409;48.776;9.204;2022-11-20T05:59:31;3.63;;;2.90;;
49502;SDS011;35409;48.776;9.204;2022-11-20T06:01:57;4.78;;;2.40;;
49502;SDS011;35409;48.776;9.204;2022-11-20T06:04:23;6.63;;;3.42;;
49502;SDS011;35409;48.776;9.204;2022-11-20T06:06:49;3.25;;;2.75;;
49502;SDS011;35409;48.776;9.204;2022-11-20T06:09:15;4.15;;;2.40;;
49502;SDS011;35409;48.776;9.204;2022-11-20T06:11:41;3.45;;;2.80;;
49502;SDS011;35409;48.776;9.204;2022-11-20T06:14:07;4.20;;;2.65;;
49502;SDS011;35409;48.776;9.204;2022-11-20T06:16:33;4.78;;;2.80;;
49502;SDS011;35409;48.776;9.204;2022-11-20T06:18:59;3.05;;;2.47;;
49502;SDS011;35409;48.776;9.204;2022-11-20T06:21:25;3.42;;;2.17;;
49502;SDS011;35409;48.776;9.204;2022-11-20T06:23:51;3.92;;;2.70;;
49502;SDS011;35409;48.776;9.204;2022-11-20T06:26:19;4.65;;;2.50;;
49502;SDS011;35409;48.776;9.204;2022-11-20T06:28:46;4.68;;;2.42;;
49502;SDS011;35409;48.776;9.204;2022-11-20T06:31:13;2.83;;;2.35;;
49502;SDS011;35409;48.776;9.204;2022-11-20T06:33:39;3.33;;;2.50;;
49502;SDS011;35409;48.776;9.204;2022-11-20T06:36:06;3.17;;;2.20;;
49502;SDS011;35409;48.776;9.204;2022-11-20T06:38:32;3.85;;;2.10;;
49502;SDS011;35409;48.776;9.204;2022-11-20T06:40:58;3.53;;;2.63;;
49502;SDS011;35409;48.776;9.204;2022-11-20T06:43:24;2.95;;;2.22;;
49502;SDS011;35409;48.776;9.204;2022-11-20T06:45:54;2.20;;;2.00;;
49502;SDS011;35409;48.776;9.204;2022-11-20T06:48:20;4.25;;;2.00;;
49502;SDS011;35409;48.776;9.204;2022-11-20T06:50:47;2.97;;;2.00;;
49502;SDS011;35409;48.776;9.204;2022-11-20T06:53:13;2.58;;;2.00;;
49502;SDS011;35409;48.776;9.204;2022-11-20T06:55:42;3.58;;;2.03;;
49502;SDS011;35409;48.776;9.204;2022-11-20T07:00:35;3.03;;;2.10;;
49502;SDS011;35409;48.776;9.204;2022-11-20T07:03:04;2.92;;;2.10;;
49502;SDS011;35409;48.776;9.204;2022-11-20T07:05:30;2.37;;;2.07;;
49502;SDS011;35409;48.776;9.204;2022-11-20T07:07:57;3.20;;;2.30;;
49502;SDS011;35409;48.776;9.204;2022-11-20T07:10:23;4.13;;;2.30;;
49502;SDS011;35409;48.776;9.204;2022-11-20T07:12:49;4.65;;;2.10;;
49502;SDS011;35409;48.776;9.204;2022-11-20T07:15:16;3.67;;;2.15;;
49502;SDS011;35409;48.776;9.204;2022-11-20T07:17:42;3.35;;;2.05;;
49502;SDS011;35409;48.776;9.204;2022-11-20T07:20:08;2.15;;;1.95;;
49502;SDS011;35409;48.776;9.204;2022-11-20T07:22:34;3.95;;;2.00;;
49502;SDS011;35409;48.776;9.204;2022-11-20T07:25:01;2.30;;;1.80;;
49502;SDS011;35409;48.776;9.204;2022-11-20T07:27:27;4.00;;;1.98;;
49502;SDS011;35409;48.776;9.204;2022-11-20T07:29:53;1.98;;;1.83;;
49502;SDS011;35409;48.776;9.204;2022-11-20T07:32:19;2.58;;;1.88;;
49502;SDS011;35409;48.776;9.204;2022-11-20T07:34:45;5.13;;;1.95;;
49502;SDS011;35409;48.776;9.204;2022-11-20T07:37:11;3.10;;;1.98;;
49502;SDS011;35409;48.776;9.204;2022-11-20T07:39:37;2.28;;;1.80;;
49502;SDS011;35409;48.776;9.204;2022-11-20T07:42:03;2.45;;;1.85;;
49502;SDS011;35409;48.776;9.204;2022-11-20T07:44:29;4.30;;;2.05;;
49502;SDS011;35409;48.776;9.204;2022-11-20T07:46:55;2.45;;;1.45;;
49502;SDS011;35409;48.776;9.204;2022-11-20T07:49:21;4.38;;;2.40;;
49502;SDS011;35409;48.776;9.204;2022-11-20T07:51:49;3.97;;;1.90;;
49502;SDS011;35409;48.776;9.204;2022-11-20T07:54:16;2.50;;;1.90;;
49502;SDS011;35409;48.776;9.204;2022-11-20T07:56:41;3.38;;;2.10;;
49502;SDS011;35409;48.776;9.204;2022-11-20T07:59:07;3.53;;;1.90;;
49502;SDS011;35409;48.776;9.204;2022-11-20T08:01:33;3.35;;;1.85;;
49502;SDS011;35409;48.776;9.204;2022-11-20T08:03:59;2.13;;;1.50;;
49502;SDS011;35409;48.776;9.204;2022-11-20T08:06:25;2.20;;;1.80;;
49502;SDS011;35409;48.776;9.204;2022-11-20T08:08:51;2.60;;;1.42;;
49502;SDS011;35409;48.776;9.204;2022-11-20T08:11:17;3.60;;;1.75;;
49502;SDS011;35409;48.776;9.204;2022-11-20T08:14:02;3.90;;;1.90;;
49502;SDS011;35409;48.776;9.204;2022-11-20T08:16:37;3.63;;;1.70;;
49502;SDS011;35409;48.776;9.204;2022-11-20T08:19:03;2.33;;;1.58;;
49502;SDS011;35409;48.776;9.204;2022-11-20T08:21:30;1.70;;;1.35;;
49502;SDS011;35409;48.776;9.204;2022-11-20T08:23:56;2.60;;;1.52;;
49502;SDS011;35409;48.776;9.204;2022-11-20T08:26:23;1.27;;;1.17;;
49502;SDS011;35409;48.776;9.204;2022-11-20T08:28:52;3.55;;;1.70;;
49502;SDS011;35409;48.776;9.204;2022-11-20T08:31:19;2.75;;;1.58;;
49502;SDS011;35409;48.776;9.204;2022-11-20T08:33:45;1.73;;;1.30;;
49502;SDS011;35409;48.776;9.204;2022-11-20T08:36:11;1.63;;;1.30;;
49502;SDS011;35409;48.776;9.204;2022-11-20T08:38:38;3.03;;;1.65;;
49502;SDS011;35409;48.776;9.204;2022-11-20T08:41:04;1.50;;;1.10;;
49502;SDS011;35409;48.776;9.204;2022-11-20T08:43:49;3.72;;;1.15;;
49502;SDS011;35409;48.776;9.204;2022-11-20T08:46:15;1.70;;;1.33;;
49502;SDS011;35409;48.776;9.204;2022-11-20T08:48:42;1.52;;;1.20;;
49502;SDS011;35409;48.776;9.204;2022-11-20T08:51:08;2.95;;;1.30;;
49502;SDS011;35409;48.776;9.204;2022-11-20T08:53:34;2.40;;;1.63;;
49502;SDS011;35409;48.776;9.204;2022-11-20T08:56:00;3.40;;;1.30;;
49502;SDS011;35409;48.776;9.204;2022-11-20T08:58:26;1.48;;;1.02;;
49502;SDS011;35409;48.776;9.204;2022-11-20T09:00:52;1.65;;;1.33;;
49502;SDS011;35409;48.776;9.204;2022-11-20T09:03:18;1.63;;;1.05;;
49502;SDS011;35409;48.776;9.204;2022-11-20T09:05:44;2.00;;;1.13;;
49502;SDS011;35409;48.776;9.204;2022-11-20T09:08:10;2.95;;;1.10;;
49502;SDS011;35409;48.776;9.204;2022-11-20T09:10:36;1.48;;;1.08;;
49502;SDS011;35409;48.776;9.204;2022-11-20T09:13:04;1.02;;;0.93;;
49502;SDS011;35409;48.776;9.204;2022-11-20T09:15:31;0.80;;;0.80;;
49502;SDS011;35409;48.776;9.204;2022-11-20T09:17:58;1.90;;;1.10;;
49502;SDS011;35409;48.776;9.204;2022-11-20T09:20:25;1.15;;;1.05;;
49502;SDS011;35409;48.776;9.204;2022-11-20T09:22:51;2.50;;;0.93;;
49502;SDS011;35409;48.776;9.204;2022-11-20T09:25:17;1.45;;;1.08;;
49502;SDS011;35409;48.776;9.204;2022-11-20T09:27:43;1.65;;;1.27;;
49502;SDS011;35409;48.776;9.204;2022-11-20T09:30:11;1.05;;;0.70;;
49502;SDS011;35409;48.776;9.204;2022-11-20T09:32:41;1.25;;;1.00;;
49502;SDS011;35409;48.776;9.204;2022-11-20T09:35:07;1.38;;;0.70;;
49502;SDS011;35409;48.776;9.204;2022-11-20T09:37:33;1.58;;;0.68;;
49502;SDS011;35409;48.776;9.204;2022-11-20T09:39:59;2.03;;;1.10;;
49502;SDS011;35409;48.776;9.204;2022-11-20T09:42:43;2.33;;;1.00;;
49502;SDS011;35409;48.776;9.204;2022-11-20T09:45:15;0.80;;;0.65;;
49502;SDS011;35409;48.776;9.204;2022-11-20T09:52:57;1.02;;;0.70;;
49502;SDS011;35409;48.776;9.204;2022-11-20T09:55:25;1.17;;;0.80;;
49502;SDS011;35409;48.776;9.204;2022-11-20T09:57:51;2.53;;;0.80;;
49502;SDS011;35409;48.776;9.204;2022-11-20T10:00:17;1.60;;;0.70;;
49502;SDS011;35409;48.776;9.204;2022-11-20T10:03:06;1.38;;;0.52;;
49502;SDS011;35409;48.776;9.204;2022-11-20T10:05:47;1.10;;;0.65;;
49502;SDS011;35409;48.776;9.204;2022-11-20T10:08:18;1.52;;;0.57;;
49502;SDS011;35409;48.776;9.204;2022-11-20T10:10:49;1.67;;;0.70;;
49502;SDS011;35409;48.776;9.204;2022-11-20T10:26:22;1.58;;;0.90;;
49502;SDS011;35409;48.776;9.204;2022-11-20T10:31:34;0.73;;;0.70;;
49502;SDS011;35409;48.776;9.204;2022-11-20T10:34:01;1.60;;;0.50;;
49502;SDS011;35409;48.776;9.204;2022-11-20T10:36:30;0.93;;;0.80;;
49502;SDS011;35409;48.776;9.204;2022-11-20T10:39:01;0.50;;;0.50;;
49502;SDS011;35409;48.776;9.204;2022-11-20T10:44:00;1.55;;;0.88;;
49502;SDS011;35409;48.776;9.204;2022-11-20T10:46:29;2.28;;;0.75;;
49502;SDS011;35409;48.776;9.204;2022-11-20T10:48:57;1.55;;;1.20;;
49502;SDS011;35409;48.776;9.204;2022-11-20T10:51:30;1.85;;;1.05;;
49502;SDS011;35409;48.776;9.204;2022-11-20T10:56:30;1.52;;;0.77;;
49502;SDS011;35409;48.776;9.204;2022-11-20T10:59:04;2.75;;;0.93;;
49502;SDS011;35409;48.776;9.204;2022-11-20T11:01:42;1.58;;;0.93;;
49502;SDS011;35409;48.776;9.204;2022-11-20T11:04:17;1.13;;;0.82;;
49502;SDS011;35409;48.776;9.204;2022-11-20T11:06:46;0.95;;;0.93;;
49502;SDS011;35409;48.776;9.204;2022-11-20T11:09:19;0.93;;;0.80;;
49502;SDS011;35409;48.776;9.204;2022-11-20T11:11:46;3.83;;;1.08;;
49502;SDS011;35409;48.776;9.204;2022-11-20T11:14:14;1.67;;;1.45;;
49502;SDS011;35409;48.776;9.204;2022-11-20T11:19:16;1.42;;;1.20;;
49502;SDS011;35409;48.776;9.204;2022-11-20T11:21:52;2.42;;;1.33;;
49502;SDS011;35409;48.776;9.204;2022-11-20T11:24:26;2.60;;;1.00;;
49502;SDS011;35409;48.776;9.204;2022-11-20T11:27:02;3.63;;;1.45;;
49502;SDS011;35409;48.776;9.204;2022-11-20T11:29:30;3.63;;;1.60;;
49502;SDS011;35409;48.776;9.204;2022-11-20T11:32:06;2.65;;;1.90;;
49502;SDS011;35409;48.776;9.204;2022-11-20T11:34:33;3.80;;;2.13;;
49502;SDS011;35409;48.776;9.204;2022-11-20T11:36:59;3.92;;;2.00;;
49502;SDS011;35409;48.776;9.204;2022-11-20T11:39:27;2.05;;;1.60;;
49502;SDS011;35409;48.776;9.204;2022-11-20T11:41:53;3.38;;;1.30;;
49502;SDS011;35409;48.776;9.204;2022-11-20T11:44:21;4.43;;;1.42;;
49502;SDS011;35409;48.776;9.204;2022-11-20T11:47:23;1.85;;;1.38;;
49502;SDS011;35409;48.776;9.204;2022-11-20T11:50:00;4.47;;;1.67;;
49502;SDS011;35409;48.776;9.204;2022-11-20T11:52:26;4.82;;;1.75;;
49502;SDS011;35409;48.776;9.204;2022-11-20T11:54:55;3.45;;;1.63;;
49502;SDS011;35409;48.776;9.204;2022-11-20T12:00:12;3.95;;;1.52;;
49502;SDS011;35409;48.776;9.204;2022-11-20T12:02:44;4.20;;;2.03;;
49502;SDS011;35409;48.776;9.204;2022-11-20T12:07:46;7.22;;;1.80;;
49502;SDS011;35409;48.776;9.204;2022-11-20T12:10:20;1.80;;;1.40;;
49502;SDS011;35409;48.776;9.204;2022-11-20T12:12:52;4.47;;;1.55;;
49502;SDS011;35409;48.776;9.204;2022-11-20T12:15:33;2.78;;;1.10;;
49502;SDS011;35409;48.776;9.204;2022-11-20T12:17:59;2.42;;;0.90;;
49502;SDS011;35409;48.776;9.204;2022-11-20T12:20:27;1.55;;;1.10;;
49502;SDS011;35409;48.776;9.204;2022-11-20T12:23:56;4.32;;;1.10;;
49502;SDS011;35409;48.776;9.204;2022-11-20T12:25:50;5.97;;;1.30;;
49502;SDS011;35409;48.776;9.204;2022-11-20T12:28:23;2.95;;;0.88;;
49502;SDS011;35409;48.776;9.204;2022-11-20T12:31:03;2.00;;;0.93;;
49502;SDS011;35409;48.776;9.204;2022-11-20T12:33:46;1.35;;;0.98;;
49502;SDS011;35409;48.776;9.204;2022-11-20T12:36:19;2.55;;;0.82;;
49502;SDS011;35409;48.776;9.204;2022-11-20T12:38:55;1.50;;;0.60;;
49502;SDS011;35409;48.776;9.204;2022-11-20T12:44:34;4.43;;;0.82;;
49502;SDS011;35409;48.776;9.204;2022-11-20T12:47:31;2.00;;;0.75;;
49502;SDS011;35409;48.776;9.204;2022-11-20T12:50:02;1.55;;;0.50;;
49502;SDS011;35409;48.776;9.204;2022-11-20T12:55:14;1.50;;;0.82;;
49502;SDS011;35409;48.776;9.204;2022-11-20T12:57:57;1.75;;;0.90;;
49502;SDS011;35409;48.776;9.204;2022-11-20T13:00:24;3.28;;;1.00;;
49502;SDS011;35409;48.776;9.204;2022-11-20T13:08:14;1.52;;;0.57;;
49502;SDS011;35409;48.776;9.204;2022-11-20T13:11:02;2.35;;;0.80;;
49502;SDS011;35409;48.776;9.204;2022-11-20T13:16:15;1.67;;;0.50;;
49502;SDS011;35409;48.776;9.204;2022-11-20T13:18:42;1.30;;;0.50;;
49502;SDS011;35409;48.776;9.204;2022-11-20T13:21:17;0.80;;;0.57;;
49502;SDS011;35409;48.776;9.204;2022-11-20T13:23:44;2.30;;;0.70;;
49502;SDS011;35409;48.776;9.204;2022-11-20T13:26:17;1.33;;;0.52;;
49502;SDS011;35409;48.776;9.204;2022-11-20T13:28:45;4.78;;;0.50;;
49502;SDS011;35409;48.776;9.204;2022-11-20T13:34:11;0.30;;;0.25;;
49502;SDS011;35409;48.776;9.204;2022-11-20T13:36:48;1.77;;;0.60;;
49502;SDS011;35409;48.776;9.204;2022-11-20T13:39:23;1.60;;;0.50;;
49502;SDS011;35409;48.776;9.204;2022-11-20T13:41:56;1.90;;;0.80;;
49502;SDS011;35409;48.776;9.204;2022-11-20T13:44:30;2.80;;;0.75;;
49502;SDS011;35409;48.776;9.204;2022-11-20T13:46:59;1.38;;;0.47;;
49502;SDS011;35409;48.776;9.204;2022-11-20T13:52:22;1.77;;;0.60;;
49502;SDS011;35409;48.776;9.204;2022-11-20T13:54:55;2.78;;;0.80;;
49502;SDS011;35409;48.776;9.204;2022-11-20T14:00:25;3.63;;;1.27;;
49502;SDS011;35409;48.776;9.204;2022-11-20T14:03:16;2.33;;;0.68;;
49502;SDS011;35409;48.776;9.204;2022-11-20T14:05:40;1.13;;;0.65;;
49502;SDS011;35409;48.776;9.204;2022-11-20T14:08:14;2.90;;;0.70;;
49502;SDS011;35409;48.776;9.204;2022-11-20T14:10:43;1.67;;;0.50;;
49502;SDS011;35409;48.776;9.204;2022-11-20T14:13:10;0.70;;;0.60;;
49502;SDS011;35409;48.776;9.204;2022-11-20T14:15:36;2.78;;;0.68;;
49502;SDS011;35409;48.776;9.204;2022-11-20T14:18:18;3.05;;;1.08;;
49502;SDS011;35409;48.776;9.204;2022-11-20T14:20:45;6.53;;;0.70;;
49502;SDS011;35409;48.776;9.204;2022-11-20T14:23:11;3.88;;;0.98;;
49502;SDS011;35409;48.776;9.204;2022-11-20T14:25:37;1.33;;;0.80;;
49502;SDS011;35409;48.776;9.204;2022-11-20T14:28:10;2.58;;;0.90;;
49502;SDS011;35409;48.776;9.204;2022-11-20T14:33:05;4.45;;;1.48;;
49502;SDS011;35409;48.776;9.204;2022-11-20T14:35:35;1.73;;;1.00;;
49502;SDS011;35409;48.776;9.204;2022-11-20T14:38:02;2.33;;;1.05;;
49502;SDS011;35409;48.776;9.204;2022-11-20T14:40:30;2.97;;;1.35;;
49502;SDS011;35409;48.776;9.204;2022-11-20T14:42:57;3.13;;;1.10;;
49502;SDS011;35409;48.776;9.204;2022-11-20T14:45:24;5.10;;;1.20;;
49502;SDS011;35409;48.776;9.204;2022-11-20T14:47:54;6.53;;;2.75;;
49502;SDS011;35409;48.776;9.204;2022-11-20T14:50:27;3.90;;;1.27;;
49502;SDS011;35409;48.776;9.204;2022-11-20T14:52:54;3.53;;;1.20;;
49502;SDS011;35409;48.776;9.204;2022-11-20T14:55:28;2.55;;;1.25;;
49502;SDS011;35409;48.776;9.204;2022-11-20T14:57:55;4.53;;;1.27;;
49502;SDS011;35409;48.776;9.204;2022-11-20T15:00:21;3.08;;;1.00;;
49502;SDS011;35409;48.776;9.204;2022-11-20T15:02:48;3.65;;;0.93;;
49502;SDS011;35409;48.776;9.204;2022-11-20T15:05:15;0.90;;;0.80;;
49502;SDS011;35409;48.776;9.204;2022-11-20T15:07:46;3.60;;;1.13;;
49502;SDS011;35409;48.776;9.204;2022-11-20T15:10:20;2.60;;;0.90;;
49502;SDS011;35409;48.776;9.204;2022-11-20T15:12:47;4.97;;;1.20;;
49502;SDS011;35409;48.776;9.204;2022-11-20T15:15:24;2.25;;;1.00;;
49502;SDS011;35409;48.776;9.204;2022-11-20T15:17:51;1.83;;;1.08;;
49502;SDS011;35409;48.776;9.204;2022-11-20T15:20:17;2.63;;;1.35;;
49502;SDS011;35409;48.776;9.204;2022-11-20T15:22:43;4.00;;;1.88;;
49502;SDS011;35409;48.776;9.204;2022-11-20T15:25:13;7.90;;;2.20;;
49502;SDS011;35409;48.776;9.204;2022-11-20T15:27:40;2.72;;;1.60;;
49502;SDS011;35409;48.776;9.204;2022-11-20T15:30:16;3.15;;;1.40;;
49502;SDS011;35409;48.776;9.204;2022-11-20T15:32:43;3.33;;;1.40;;
49502;SDS011;35409;48.776;9.204;2022-11-20T15:35:10;4.88;;;1.58;;
49502;SDS011;35409;48.776;9.204;2022-11-20T15:37:36;4.90;;;1.60;;
49502;SDS011;35409;48.776;9.204;2022-11-20T15:40:03;3.05;;;1.38;;
49502;SDS011;35409;48.776;9.204;2022-11-20T15:42:29;6.15;;;1.55;;
49502;SDS011;35409;48.776;9.204;2022-11-20T15:44:55;4.90;;;1.63;;
49502;SDS011;35409;48.776;9.204;2022-11-20T15:47:23;4.10;;;2.05;;
49502;SDS011;35409;48.776;9.204;2022-11-20T15:52:17;3.05;;;1.95;;
49502;SDS011;35409;48.776;9.204;2022-11-20T15:54:43;4.13;;;1.83;;
49502;SDS011;35409;48.776;9.204;2022-11-20T15:57:09;4.40;;;1.80;;
49502;SDS011;35409;48.776;9.204;2022-11-20T15:59:35;3.80;;;1.60;;
49502;SDS011;35409;48.776;9.204;2022-11-20T16:02:08;2.60;;;1.52;;
49502;SDS011;35409;48.776;9.204;2022-11-20T16:04:34;5.43;;;1.90;;